Time;durP1;ratioP1;P1;durP2;ratioP2;P2;SDS_P1;SDS_P2;PMS_P1;PMS_P2;Temp;Humidity;BMP_temperature;BMP_pressure;BME280_temperature;BME280_humidity;BME280_pressure;Samples;Min_cycle;Max_cycle;Signal;HPM_P1;HPM_P2
2023/12/27 00:00:03;;;;;;;;;13.67;9.33;;;;;14.06;89.22;101274.38;4853359;29;45168;-81
2023/12/27 00:02:29;;;;;;;;;13.00;11.67;;;;;14.05;89.46;101277.03;4853574;29;44855;-81
2023/12/27 00:04:54;;;;;;;;;13.00;10.67;;;;;14.04;89.63;101291.25;4853836;29;47404;-81
2023/12/27 00:07:20;;;;;;;;;16.67;13.00;;;;;14.04;89.84;101275.22;4853121;29;45462;-81
2023/12/27 00:09:45;;;;;;;;;14.67;11.00;;;;;14.00;89.16;101256.50;4855101;29;44857;-82
2023/12/27 00:12:10;;;;;;;;;14.00;11.00;;;;;14.03;89.40;101263.63;4855391;29;52401;-81
2023/12/27 00:14:36;;;;;;;;;13.00;11.33;;;;;14.01;89.17;101260.94;4855998;29;45126;-82
2023/12/27 00:17:01;;;;;;;;;11.67;11.00;;;;;13.94;88.93;101258.22;4838448;29;44800;-82
2023/12/27 00:19:26;;;;;;;;;15.67;13.67;;;;;13.88;89.13;101263.53;4852504;29;45045;-82
2023/12/27 00:21:52;;;;;;;;;16.00;14.33;;;;;13.87;89.19;101269.72;4851292;29;44919;-82
2023/12/27 00:24:17;;;;;;;;;11.67;11.67;;;;;13.79;89.54;101275.00;4837271;29;46322;-82
2023/12/27 00:26:44;;;;;;;;;13.67;12.33;;;;;13.90;89.50;101268.00;4854086;29;44883;-82
2023/12/27 00:29:09;;;;;;;;;12.00;12.00;;;;;13.80;89.38;101266.13;4854165;29;44874;-81
2023/12/27 00:31:35;;;;;;;;;10.67;10.33;;;;;13.67;89.61;101265.09;4851937;29;44955;-81
2023/12/27 00:34:00;;;;;;;;;8.00;6.33;;;;;13.65;89.75;101250.81;4853654;29;45818;-81
2023/12/27 00:36:29;;;;;;;;;16.33;11.67;;;;;13.61;89.94;101238.31;4851965;29;45621;-82
2023/12/27 00:38:56;;;;;;;;;12.67;11.33;;;;;13.67;89.67;101246.38;4853473;29;44846;-82
2023/12/27 00:41:21;;;;;;;;;9.67;9.67;;;;;13.41;90.56;101222.06;4852486;29;45188;-82
2023/12/27 00:43:46;;;;;;;;;16.67;16.67;;;;;13.45;90.57;101231.00;4853335;29;45501;-82
2023/12/27 00:46:12;;;;;;;;;12.33;11.33;;;;;13.47;90.61;101237.28;4851976;29;44854;-82
2023/12/27 00:48:37;;;;;;;;;10.00;9.33;;;;;13.44;90.73;101240.81;4852964;29;44867;-82
2023/12/27 00:54:24;;;;;;;;;12.00;10.33;;;;;13.39;90.74;101237.19;4858126;29;45368;-82
2023/12/27 00:56:50;;;;;;;;;10.33;9.67;;;;;13.37;91.18;101234.53;4856315;29;44813;-82
2023/12/27 00:59:15;;;;;;;;;12.33;10.67;;;;;13.39;91.28;101226.50;4856934;29;44789;-82
2023/12/27 01:01:41;;;;;;;;;11.33;11.00;;;;;13.42;90.94;101204.28;4855748;29;45350;-82
2023/12/27 01:04:07;;;;;;;;;14.33;12.00;;;;;13.43;91.04;101211.41;4855522;29;46339;-82
2023/12/27 01:06:32;;;;;;;;;14.33;13.33;;;;;13.42;91.23;101215.88;4855227;29;44702;-82
2023/12/27 01:08:58;;;;;;;;;11.33;9.67;;;;;13.43;91.24;101216.75;4855156;29;45385;-82
2023/12/27 01:11:23;;;;;;;;;13.67;13.67;;;;;13.46;91.23;101224.81;4853948;29;45541;-82
2023/12/27 01:13:48;;;;;;;;;16.33;12.00;;;;;13.51;91.52;101241.75;4856644;29;46949;-82
2023/12/27 01:16:15;;;;;;;;;14.33;12.00;;;;;13.54;90.93;101236.47;4856961;29;45321;-82
2023/12/27 01:18:41;;;;;;;;;10.00;10.00;;;;;13.58;90.83;101239.19;4841972;29;44771;-82
2023/12/27 01:21:09;;;;;;;;;11.33;11.33;;;;;13.51;91.06;101229.31;4855588;29;44814;-82
2023/12/27 01:23:34;;;;;;;;;15.00;14.67;;;;;13.53;90.95;101245.34;4855263;29;45147;-82
2023/12/27 01:25:59;;;;;;;;;14.67;9.33;;;;;13.58;90.89;101230.28;4854384;29;44926;-81
2023/12/27 01:28:25;;;;;;;;;12.00;9.00;;;;;13.55;90.97;101215.13;4854219;29;45317;-82
2023/12/27 01:30:50;;;;;;;;;16.33;12.00;;;;;13.56;90.20;101221.34;4855282;29;44910;-82
2023/12/27 01:33:16;;;;;;;;;9.33;8.00;;;;;13.48;90.79;101212.38;4855395;29;45269;-82
2023/12/27 01:35:41;;;;;;;;;9.00;9.00;;;;;13.47;90.54;101223.91;4839259;29;45213;-82
2023/12/27 01:38:06;;;;;;;;;14.00;10.67;;;;;13.49;90.70;101238.19;4840357;29;44998;-82
2023/12/27 01:40:32;;;;;;;;;12.00;12.00;;;;;13.53;90.45;101229.31;4855448;29;44862;-82
2023/12/27 01:42:57;;;;;;;;;10.00;10.00;;;;;13.52;90.28;101239.13;4855030;29;58067;-82
2023/12/27 01:45:23;;;;;;;;;14.00;14.00;;;;;13.55;90.42;101249.84;4857153;29;44830;-83
2023/12/27 01:47:48;;;;;;;;;11.00;11.00;;;;;13.69;90.37;101251.75;4856112;29;44881;-82
2023/12/27 01:50:15;;;;;;;;;13.67;12.00;;;;;13.60;90.23;101236.53;4855343;29;44902;-82
2023/12/27 01:52:41;;;;;;;;;5.00;5.00;;;;;13.61;89.58;101227.59;4838255;29;47284;-82
2023/12/27 01:55:09;;;;;;;;;14.00;11.67;;;;;13.60;89.52;101209.81;4837931;29;44918;-82
2023/12/27 01:57:37;;;;;;;;;11.33;9.67;;;;;13.59;89.31;101229.38;4853751;29;44968;-82
2023/12/27 02:00:03;;;;;;;;;9.00;8.00;;;;;13.58;88.88;101200.88;4856084;29;45450;-82
2023/12/27 02:02:30;;;;;;;;;10.33;10.00;;;;;13.54;88.73;101183.91;4863266;29;46760;-81
2023/12/27 02:04:55;;;;;;;;;11.00;11.00;;;;;13.53;89.00;101187.47;4865209;29;44797;-80
2023/12/27 02:07:21;;;;;;;;;15.00;13.00;;;;;13.55;88.73;101191.06;4864537;29;44855;-81
2023/12/27 02:09:49;;;;;;;;;9.33;9.33;;;;;13.51;89.35;101191.00;4864759;29;45131;-81
2023/12/27 02:12:35;;;;;;;;;10.33;10.00;;;;;13.60;88.69;101204.47;4863547;29;47169;-81
2023/12/27 02:15:01;;;;;;;;;10.00;10.00;;;;;13.54;89.11;101228.44;4865066;29;45248;-81
2023/12/27 02:17:27;;;;;;;;;9.33;9.00;;;;;13.59;88.64;101199.97;4864675;29;45371;-81
2023/12/27 02:19:54;;;;;;;;;10.33;8.67;;;;;13.55;89.07;101193.72;4864772;29;44925;-81
2023/12/27 02:22:20;;;;;;;;;9.67;9.33;;;;;13.60;88.85;101191.09;4865047;29;46403;-82
2023/12/27 02:24:48;;;;;;;;;6.67;6.67;;;;;13.69;88.48;101192.94;4866005;29;44852;-81
2023/12/27 02:27:14;;;;;;;;;9.33;9.33;;;;;13.55;88.43;101180.38;4864302;29;44826;-81
2023/12/27 02:29:39;;;;;;;;;12.00;8.00;;;;;13.59;88.46;101186.63;4864052;29;44875;-81
2023/12/27 02:32:08;;;;;;;;;9.67;8.67;;;;;13.72;88.48;101195.66;4865220;29;45150;-81
2023/12/27 02:34:34;;;;;;;;;11.00;9.00;;;;;13.68;88.13;101208.09;4864853;29;45408;-81
2023/12/27 02:36:59;;;;;;;;;7.33;5.00;;;;;13.62;88.09;101202.69;4864672;29;44835;-82
2023/12/27 02:39:24;;;;;;;;;10.00;8.67;;;;;13.70;87.80;101192.06;4865631;29;44859;-80
2023/12/27 02:41:50;;;;;;;;;10.00;10.00;;;;;13.71;87.09;101181.38;4863943;29;47205;-81
2023/12/27 02:44:15;;;;;;;;;10.67;8.00;;;;;13.67;87.07;101176.88;4864239;29;48312;-81
2023/12/27 02:46:41;;;;;;;;;10.00;10.00;;;;;13.59;86.80;101170.56;4865450;29;45400;-81
2023/12/27 02:49:06;;;;;;;;;12.00;10.00;;;;;13.55;86.89;101163.41;4848826;29;44870;-81
2023/12/27 02:51:31;;;;;;;;;9.33;9.33;;;;;13.56;87.08;101151.88;4865142;29;44932;-81
2023/12/27 02:53:57;;;;;;;;;12.67;8.67;;;;;13.56;87.36;101154.53;4864076;29;44865;-81
2023/12/27 02:56:22;;;;;;;;;7.67;7.67;;;;;13.57;87.06;101156.31;4864493;29;45007;-81
2023/12/27 02:58:47;;;;;;;;;9.00;9.00;;;;;13.57;86.68;101164.31;4848807;29;45098;-81
2023/12/27 03:01:13;;;;;;;;;10.67;9.00;;;;;13.53;86.10;101166.09;4866165;29;45316;-81
2023/12/27 03:03:39;;;;;;;;;10.00;9.67;;;;;13.51;85.92;101161.59;4865440;29;44799;-81
2023/12/27 03:06:05;;;;;;;;;7.33;7.33;;;;;13.50;86.23;101159.81;4866669;29;44800;-81
2023/12/27 03:11:52;;;;;;;;;10.67;9.33;;;;;13.47;86.27;101154.44;4865840;29;44910;-80
2023/12/27 03:14:17;;;;;;;;;7.00;7.00;;;;;13.35;87.16;101158.81;4864454;29;44770;-81
2023/12/27 03:16:43;;;;;;;;;9.00;9.00;;;;;13.30;87.01;101156.97;4847878;29;45204;-80
2023/12/27 03:19:09;;;;;;;;;11.67;9.00;;;;;13.30;87.44;101152.50;4864990;29;44786;-81
2023/12/27 03:21:36;;;;;;;;;10.25;8.75;;;;;13.27;87.21;101143.53;4862639;29;47540;-81
2023/12/27 03:24:02;;;;;;;;;5.33;5.33;;;;;13.42;86.85;101140.16;4863162;29;45386;-81
2023/12/27 03:29:17;;;;;;;;;8.33;8.33;;;;;13.61;86.75;101134.06;5004448;23;45512;-81
2023/12/27 03:31:43;;;;;;;;;8.00;8.00;;;;;13.45;86.64;101129.50;4898478;29;47116;-81
2023/12/27 03:34:10;;;;;;;;;7.50;5.00;;;;;13.49;86.83;101120.63;4882527;29;46179;-80
2023/12/27 03:36:35;;;;;;;;;10.00;7.33;;;;;13.50;86.23;101111.72;4885592;29;45491;-81
2023/12/27 03:39:01;;;;;;;;;10.33;8.67;;;;;13.50;86.64;101114.41;4884402;29;45670;-81
2023/12/27 03:41:26;;;;;;;;;6.00;5.33;;;;;13.50;86.83;101106.38;4883006;29;47130;-81
2023/12/27 03:43:58;;;;;;;;;7.33;7.33;;;;;13.47;86.21;101096.59;4884230;29;45406;-81
2023/12/27 03:46:23;;;;;;;;;6.33;6.33;;;;;13.42;86.35;101097.41;4883621;29;45389;-80
2023/12/27 03:48:48;;;;;;;;;9.33;9.00;;;;;13.44;86.37;101095.66;4884837;29;45338;-81
2023/12/27 03:51:14;;;;;;;;;6.33;6.33;;;;;13.47;86.33;101114.38;4884255;29;45386;-81
2023/12/27 03:53:39;;;;;;;;;9.67;8.67;;;;;13.50;86.30;101099.25;4881027;29;45348;-80
2023/12/27 03:56:10;;;;;;;;;8.67;8.67;;;;;13.61;86.33;101099.31;4882374;29;45416;-79
2023/12/27 03:58:35;;;;;;;;;13.33;8.67;;;;;13.49;86.74;101104.59;4881821;29;45682;-81
2023/12/27 04:01:01;;;;;;;;;9.33;8.67;;;;;13.56;86.59;101107.31;4896313;29;46094;-80
2023/12/27 04:03:26;;;;;;;;;4.00;3.00;;;;;13.44;86.82;101107.22;4883567;29;45457;-80
2023/12/27 04:05:58;;;;;;;;;9.00;6.67;;;;;13.67;86.86;101091.34;4883508;28;45455;-80
2023/12/27 04:08:29;;;;;;;;;9.00;9.00;;;;;13.53;86.07;101077.00;4866254;29;45989;-80
2023/12/27 04:10:55;;;;;;;;;5.00;4.67;;;;;13.53;86.38;101083.25;4898429;29;47443;-79
2023/12/27 04:13:20;;;;;;;;;9.00;7.00;;;;;13.55;86.14;101077.91;4883357;28;45436;-80
2023/12/27 04:15:46;;;;;;;;;7.00;7.00;;;;;13.52;86.17;101072.56;4883778;29;45494;-80
2023/12/27 04:18:12;;;;;;;;;11.00;10.00;;;;;13.57;85.81;101081.47;4882406;29;45825;-81
2023/12/27 04:20:37;;;;;;;;;5.33;5.33;;;;;13.58;86.09;101067.25;4884053;29;45447;-79
2023/12/27 04:23:03;;;;;;;;;8.00;8.00;;;;;13.57;85.81;101054.75;4897334;29;45465;-80
2023/12/27 04:25:28;;;;;;;;;5.00;5.00;;;;;13.51;85.83;101055.63;4881822;29;45908;-81
2023/12/27 04:27:53;;;;;;;;;8.67;8.67;;;;;13.50;85.16;101050.28;4881847;29;45487;-80
2023/12/27 04:30:19;;;;;;;;;11.00;9.33;;;;;13.42;85.50;101055.56;4881938;29;47159;-79
2023/12/27 04:32:45;;;;;;;;;8.00;8.00;;;;;13.39;85.15;101050.19;4881726;29;45733;-79
2023/12/27 04:35:11;;;;;;;;;9.00;7.67;;;;;13.28;86.31;101042.06;4882547;29;45798;-80
2023/12/27 04:37:36;;;;;;;;;8.00;8.00;;;;;13.28;85.71;101041.16;4880688;29;45327;-80
2023/12/27 04:40:02;;;;;;;;;4.67;4.67;;;;;13.24;85.60;101032.22;4882260;29;47062;-81
2023/12/27 04:42:28;;;;;;;;;8.67;8.67;;;;;13.09;85.89;101029.44;4883441;29;45461;-80
2023/12/27 04:44:53;;;;;;;;;6.67;6.67;;;;;13.20;85.25;101027.75;4882114;29;45441;-80
2023/12/27 04:47:18;;;;;;;;;8.33;7.00;;;;;13.31;85.23;101025.19;4883847;28;44746;-79
2023/12/27 04:49:44;;;;;;;;;9.33;7.33;;;;;13.29;84.53;101024.25;4883328;29;46051;-80
2023/12/27 04:52:11;;;;;;;;;7.00;6.33;;;;;13.44;84.88;101034.19;4883121;29;45416;-80
2023/12/27 04:54:36;;;;;;;;;9.00;5.00;;;;;13.31;84.74;101039.47;4883200;29;45888;-79
2023/12/27 04:57:01;;;;;;;;;9.33;5.00;;;;;13.30;84.73;101034.97;4883545;28;45773;-81
2023/12/27 04:59:27;;;;;;;;;9.00;8.00;;;;;13.34;84.87;101026.09;4881467;28;47245;-80
2023/12/27 05:01:53;;;;;;;;;7.00;7.00;;;;;13.29;84.29;101014.50;4881450;29;45527;-80
2023/12/27 05:04:19;;;;;;;;;5.00;5.00;;;;;13.44;84.85;101026.19;4866626;29;45432;-81
2023/12/27 05:06:45;;;;;;;;;6.33;6.33;;;;;13.33;84.55;101040.38;4882990;29;46004;-80
2023/12/27 05:09:10;;;;;;;;;5.00;5.00;;;;;13.36;84.35;101035.03;4879837;29;47062;-80
2023/12/27 05:11:36;;;;;;;;;9.00;6.33;;;;;13.28;84.21;101012.69;4879422;29;45418;-80
2023/12/27 05:14:01;;;;;;;;;9.00;9.00;;;;;13.28;84.01;101023.34;4881235;28;45749;-80
2023/12/27 05:16:26;;;;;;;;;5.67;5.67;;;;;13.22;84.44;101031.31;4882339;29;45457;-81
2023/12/27 05:18:52;;;;;;;;;5.67;5.67;;;;;13.25;84.65;101039.38;4881698;29;48343;-81
2023/12/27 05:21:18;;;;;;;;;9.00;9.00;;;;;13.33;84.16;101034.09;4883380;29;45390;-80
2023/12/27 05:23:44;;;;;;;;;7.67;5.67;;;;;13.19;84.37;101020.63;4882575;29;45444;-79
2023/12/27 05:26:10;;;;;;;;;7.67;6.33;;;;;13.23;84.21;101026.88;4883890;29;45496;-80
2023/12/27 05:28:36;;;;;;;;;9.00;9.00;;;;;13.21;84.23;101025.09;4873970;29;45428;-81
2023/12/27 05:31:02;;;;;;;;;6.00;6.00;;;;;12.92;85.19;101024.84;4863321;29;45442;-80
2023/12/27 05:33:27;;;;;;;;;7.33;7.33;;;;;12.85;86.18;101024.78;4865328;29;45490;-80
2023/12/27 05:35:53;;;;;;;;;7.33;7.33;;;;;12.83;86.32;101023.88;4880926;29;45603;-81
2023/12/27 05:38:18;;;;;;;;;8.33;7.00;;;;;12.94;86.30;101019.53;4869115;29;46321;-81
2023/12/27 05:40:44;;;;;;;;;7.67;4.33;;;;;13.13;85.67;101020.59;4868882;29;45570;-82
2023/12/27 05:43:10;;;;;;;;;5.33;5.33;;;;;12.82;86.04;101022.97;4867163;29;45524;-81
2023/12/27 05:45:35;;;;;;;;;8.00;6.00;;;;;12.79;86.07;101014.94;4868000;29;45458;-80
2023/12/27 05:48:01;;;;;;;;;4.67;4.67;;;;;12.79;86.24;101014.94;4881559;29;48757;-81
2023/12/27 05:50:26;;;;;;;;;8.67;6.33;;;;;12.71;86.42;101008.66;4868490;29;45286;-81
2023/12/27 05:53:32;;;;;;;;;5.00;5.00;;;;;12.83;86.62;101010.53;4866955;29;45492;-80
2023/12/27 05:55:58;;;;;;;;;5.00;5.00;;;;;12.60;86.96;101006.78;4883926;29;45422;-81
2023/12/27 05:58:23;;;;;;;;;7.33;5.00;;;;;12.59;86.92;101007.63;4867781;29;45273;-81
2023/12/27 06:00:48;;;;;;;;;8.67;8.00;;;;;12.59;87.25;101012.09;4867388;29;45989;-80
2023/12/27 06:03:14;;;;;;;;;8.00;7.00;;;;;12.58;86.98;101008.53;4869136;29;45337;-81
2023/12/27 06:05:41;;;;;;;;;5.00;5.00;;;;;12.63;87.46;101003.22;4867687;29;45678;-81
2023/12/27 06:08:06;;;;;;;;;3.00;3.00;;;;;12.51;87.46;101014.66;4868359;29;47303;-79
2023/12/27 06:10:32;;;;;;;;;8.00;6.67;;;;;12.58;87.62;101010.28;4869448;29;45498;-80
2023/12/27 06:12:57;;;;;;;;;8.33;8.00;;;;;12.55;87.32;101016.50;4867856;29;45507;-80
2023/12/27 06:15:22;;;;;;;;;5.33;5.33;;;;;12.54;87.49;101022.72;4866417;29;45529;-79
2023/12/27 06:17:48;;;;;;;;;8.33;7.33;;;;;12.54;87.48;101014.72;4881889;29;46067;-79
2023/12/27 06:20:13;;;;;;;;;5.67;5.67;;;;;12.59;87.38;101025.44;4867429;29;45425;-79
2023/12/27 06:22:39;;;;;;;;;7.00;4.00;;;;;12.64;87.38;101028.13;4865936;29;45498;-79
2023/12/27 06:25:05;;;;;;;;;7.33;7.00;;;;;12.62;87.60;101022.78;4865797;29;45460;-80
2023/12/27 06:27:31;;;;;;;;;5.00;5.00;;;;;12.63;87.05;101024.56;4866475;29;45332;-81
2023/12/27 06:29:57;;;;;;;;;5.00;5.00;;;;;12.64;87.11;101025.47;4866259;29;45745;-81
2023/12/27 06:32:22;;;;;;;;;7.33;6.00;;;;;12.60;87.43;101036.13;4867065;29;45771;-80
2023/12/27 06:34:47;;;;;;;;;10.33;8.00;;;;;12.61;87.36;101029.00;4866251;29;45410;-81
2023/12/27 06:37:13;;;;;;;;;5.00;5.00;;;;;12.60;87.29;101027.19;4864836;29;55709;-81
2023/12/27 06:39:39;;;;;;;;;7.00;7.00;;;;;12.56;87.21;101023.63;4881256;29;45424;-81
2023/12/27 06:45:26;;;;;;;;;9.33;4.33;;;;;12.48;87.58;101017.31;4867695;29;45715;-80
2023/12/27 06:47:51;;;;;;;;;8.00;6.67;;;;;12.45;87.41;101014.59;4867371;29;46138;-81
2023/12/27 06:50:17;;;;;;;;;10.67;10.00;;;;;12.41;87.74;101024.34;4865516;29;45717;-81
2023/12/27 06:52:42;;;;;;;;;8.00;6.33;;;;;12.35;87.58;101016.28;4863917;29;45685;-79
2023/12/27 06:55:08;;;;;;;;;8.67;5.67;;;;;12.30;87.77;101004.66;4866078;29;45318;-81
2023/12/27 06:57:34;;;;;;;;;9.00;8.67;;;;;12.37;88.23;101016.28;4866106;29;45465;-80
2023/12/27 07:00:00;;;;;;;;;7.00;7.00;;;;;12.26;88.31;101010.84;4865719;29;45414;-80
2023/12/27 07:02:25;;;;;;;;;7.67;7.67;;;;;12.26;88.27;101013.50;4881447;29;45754;-80
2023/12/27 07:04:50;;;;;;;;;7.67;7.67;;;;;12.28;88.35;101016.19;4868007;29;44910;-79
2023/12/27 07:07:16;;;;;;;;;7.00;7.00;;;;;12.27;88.44;101009.97;4867033;29;59451;-79
2023/12/27 07:10:31;;;;;;;;;10.33;9.67;;;;;12.39;88.10;100998.53;4873887;29;45712;-80
2023/12/27 07:12:57;;;;;;;;;10.67;7.67;;;;;12.15;88.52;101007.16;4864966;29;45520;-80
2023/12/27 07:15:23;;;;;;;;;8.00;8.00;;;;;12.17;88.36;101003.63;4866631;29;45476;-81
2023/12/27 07:17:48;;;;;;;;;10.67;10.67;;;;;12.15;88.60;101007.16;4866161;29;45407;-81
2023/12/27 07:20:14;;;;;;;;;10.00;8.67;;;;;12.13;88.67;101001.78;4865913;29;45912;-80
2023/12/27 07:22:41;;;;;;;;;10.00;8.00;;;;;12.18;88.81;101000.09;4865873;29;45465;-80
2023/12/27 07:25:06;;;;;;;;;8.67;8.00;;;;;12.12;88.95;101000.03;4866844;29;45791;-80
2023/12/27 07:27:32;;;;;;;;;8.33;5.00;;;;;12.07;88.64;101001.72;4866564;29;47357;-81
2023/12/27 07:29:57;;;;;;;;;8.00;7.33;;;;;12.03;88.61;100999.91;4885029;29;45885;-80
2023/12/27 07:32:22;;;;;;;;;8.00;8.00;;;;;12.02;88.92;101014.13;4886684;29;45506;-80
2023/12/27 07:34:48;;;;;;;;;7.00;7.00;;;;;12.03;88.81;100999.91;4885055;29;45372;-80
2023/12/27 07:37:13;;;;;;;;;4.00;4.00;;;;;11.97;88.97;100992.72;4883240;29;46870;-80
2023/12/27 07:39:40;;;;;;;;;4.67;4.00;;;;;12.01;89.04;100991.88;4886468;29;45369;-80
2023/12/27 07:42:07;;;;;;;;;8.67;7.00;;;;;11.94;89.34;101000.69;4884386;29;45408;-80
2023/12/27 07:44:32;;;;;;;;;7.00;4.00;;;;;11.97;89.16;100994.50;4899528;29;45492;-80
2023/12/27 07:46:58;;;;;;;;;6.67;6.67;;;;;11.92;89.11;101001.56;4884903;29;45441;-80
2023/12/27 07:49:24;;;;;;;;;9.33;8.00;;;;;11.96;88.82;100995.38;4885333;28;45514;-80
2023/12/27 07:51:51;;;;;;;;;8.33;5.33;;;;;11.89;88.63;100988.16;4888170;28;45513;-80
2023/12/27 07:54:16;;;;;;;;;8.00;8.00;;;;;11.84;88.68;100982.75;4907447;28;45307;-81
2023/12/27 07:56:41;;;;;;;;;6.67;6.00;;;;;11.82;88.64;100982.72;4906503;28;47210;-80
2023/12/27 08:02:28;;;;;;;;;5.33;5.33;;;;;11.87;88.26;100981.88;4907409;28;44872;-81
2023/12/27 08:04:55;;;;;;;;;7.67;7.67;;;;;11.96;88.37;100977.59;4908123;28;44811;-81
2023/12/27 08:07:20;;;;;;;;;7.00;7.00;;;;;11.90;88.44;100982.88;4907858;28;50242;-81
2023/12/27 08:09:49;;;;;;;;;7.33;7.00;;;;;12.02;88.27;100976.78;4906466;28;44805;-81
2023/12/27 08:15:36;;;;;;;;;7.00;7.00;;;;;11.97;87.97;100981.16;4906932;28;44885;-81
2023/12/27 08:18:03;;;;;;;;;5.00;5.00;;;;;11.96;88.01;100984.72;4907555;28;45453;-81
2023/12/27 08:20:30;;;;;;;;;5.67;5.67;;;;;11.98;87.94;100982.97;4907625;28;44873;-81
2023/12/27 08:22:58;;;;;;;;;7.67;6.67;;;;;12.00;87.92;100994.53;4907942;28;45312;-81
2023/12/27 08:28:46;;;;;;;;;7.00;7.00;;;;;12.05;87.07;100992.81;4906406;28;44986;-81
2023/12/27 08:31:13;;;;;;;;;4.00;4.00;;;;;12.01;86.96;100998.97;4902816;29;44971;-80
2023/12/27 08:33:38;;;;;;;;;7.33;7.33;;;;;11.99;86.15;100987.41;4901437;28;44762;-81
2023/12/27 08:36:04;;;;;;;;;5.00;5.00;;;;;11.93;86.63;100987.34;4897968;29;44874;-82
2023/12/27 08:41:52;;;;;;;;;6.33;6.33;;;;;12.07;86.44;100991.06;4904312;28;45014;-81
2023/12/27 08:44:17;;;;;;;;;3.67;3.67;;;;;12.09;86.51;100989.31;4903580;29;44881;-81
2023/12/27 08:46:42;;;;;;;;;7.00;7.00;;;;;12.06;85.74;100989.28;4903132;28;45621;-82
2023/12/27 08:49:08;;;;;;;;;8.00;8.00;;;;;12.00;85.67;100978.56;4902554;28;47073;-83
2023/12/27 08:54:56;;;;;;;;;7.00;4.33;;;;;12.03;84.82;100973.25;4902747;28;44781;-81
2023/12/27 08:59:56;;;;;;;;;8.67;7.00;;;;;12.07;85.00;100975.06;4489961;23;46426;-82
2023/12/27 09:02:23;;;;;;;;;6.33;6.33;;;;;12.15;84.74;100973.38;4862565;29;44845;-83
2023/12/27 09:04:49;;;;;;;;;7.33;7.00;;;;;12.11;84.50;100981.31;4861389;29;44935;-81
2023/12/27 09:07:14;;;;;;;;;4.00;4.00;;;;;12.07;84.41;100964.41;4874163;29;45487;-82
2023/12/27 09:09:40;;;;;;;;;7.00;7.00;;;;;12.14;84.42;100976.94;4880956;29;45382;-81
2023/12/27 09:12:06;;;;;;;;;7.33;7.33;;;;;12.24;84.32;100966.34;4862804;29;44889;-83
2023/12/27 09:14:32;;;;;;;;;5.67;5.67;;;;;12.29;83.94;100967.31;4884672;29;44721;-81
2023/12/27 09:16:57;;;;;;;;;4.00;4.00;;;;;12.35;83.72;100970.03;4874472;29;44890;-81
2023/12/27 09:19:23;;;;;;;;;8.00;8.00;;;;;12.37;83.28;100973.63;4860925;29;46007;-82
2023/12/27 09:21:50;;;;;;;;;8.00;8.00;;;;;12.45;83.36;100971.03;4865352;29;45842;-82
2023/12/27 09:24:18;;;;;;;;;9.00;7.00;;;;;12.35;82.49;100951.38;4880180;29;44880;-83
2023/12/27 09:26:47;;;;;;;;;8.00;8.00;;;;;12.41;82.29;100959.44;4862337;29;45026;-82
2023/12/27 09:29:12;;;;;;;;;8.67;7.00;;;;;12.34;82.79;100952.22;4861030;29;47272;-81
2023/12/27 09:31:37;;;;;;;;;9.67;8.00;;;;;12.28;82.89;100931.75;4865961;29;45616;-81
2023/12/27 09:34:10;;;;;;;;;9.00;5.00;;;;;12.55;82.09;100952.44;4882898;29;45085;-81
2023/12/27 09:36:37;;;;;;;;;5.67;5.00;;;;;12.39;81.74;100947.84;4866261;29;45487;-82
2023/12/27 09:39:04;;;;;;;;;9.33;8.00;;;;;12.46;81.86;100957.69;4869071;29;47246;-82
2023/12/27 09:41:30;;;;;;;;;7.00;7.00;;;;;12.46;81.81;100951.47;4867037;29;44939;-81
2023/12/27 09:51:52;;;;;;;;;7.33;7.33;;;;;12.70;80.92;100950.81;4935915;23;45021;-82
2023/12/27 09:54:20;;;;;;;;;7.33;7.00;;;;;12.54;80.46;100940.00;4908636;29;44757;-81
2023/12/27 09:56:47;;;;;;;;;15.33;15.00;;;;;12.81;80.57;100944.69;4906177;29;44908;-82
2023/12/27 09:59:26;;;;;;;;;15.33;13.33;;;;;12.88;80.38;100936.72;4866943;29;47235;-82
2023/12/27 10:01:57;;;;;;;;;6.33;5.00;;;;;12.83;78.72;100928.69;4905418;28;45271;-82
2023/12/27 10:04:42;;;;;;;;;10.67;9.67;;;;;12.93;78.38;100929.66;4910255;28;44923;-81
2023/12/27 10:07:09;;;;;;;;;7.00;7.00;;;;;12.79;78.89;100935.78;4890857;29;44821;-81
2023/12/27 10:09:42;;;;;;;;;9.00;8.67;;;;;12.85;78.47;100928.69;4900981;29;45174;-81
2023/12/27 10:12:07;;;;;;;;;6.67;6.67;;;;;12.90;78.40;100927.81;4899655;29;44856;-81
2023/12/27 10:14:35;;;;;;;;;6.33;6.33;;;;;13.02;78.39;100916.34;4906651;28;44866;-81
2023/12/27 10:17:03;;;;;;;;;5.00;5.00;;;;;13.01;78.12;100923.47;4901529;28;45201;-81
2023/12/27 10:19:40;;;;;;;;;6.33;6.00;;;;;13.15;77.01;100917.34;4899061;28;45557;-81
2023/12/27 10:22:07;;;;;;;;;8.67;8.00;;;;;12.96;77.31;100910.97;4894045;29;45009;-81
2023/12/27 10:24:34;;;;;;;;;8.33;8.33;;;;;13.06;77.96;100914.59;4895907;29;44821;-82
2023/12/27 10:27:02;;;;;;;;;8.00;5.00;;;;;13.09;77.25;100903.94;4892493;29;44817;-81
2023/12/27 10:29:35;;;;;;;;;4.67;4.67;;;;;13.25;75.64;100907.59;4858546;29;45582;-82
2023/12/27 10:32:03;;;;;;;;;7.67;5.00;;;;;13.15;76.44;100901.31;4853835;29;45219;-81
2023/12/27 10:34:29;;;;;;;;;7.00;7.00;;;;;13.12;75.85;100887.94;4856827;29;44999;-81
2023/12/27 10:36:56;;;;;;;;;5.67;5.00;;;;;13.17;76.06;100884.41;4861788;29;45381;-83
2023/12/27 10:39:23;;;;;;;;;5.67;5.67;;;;;13.25;76.01;100887.13;4855221;29;47448;-81
2023/12/27 10:41:52;;;;;;;;;8.33;8.33;;;;;13.27;74.12;100879.09;4875258;29;44976;-82
2023/12/27 10:44:19;;;;;;;;;8.00;8.00;;;;;13.14;74.46;100871.03;4849118;29;45415;-81
2023/12/27 10:46:44;;;;;;;;;8.67;8.00;;;;;13.14;74.44;100875.50;4845442;29;45719;-81
2023/12/27 10:49:13;;;;;;;;;6.33;4.33;;;;;13.18;75.29;100869.28;4847632;29;46400;-81
2023/12/27 10:51:40;;;;;;;;;7.00;5.00;;;;;13.21;74.98;100858.63;4878248;29;45428;-80
2023/12/27 10:54:05;;;;;;;;;5.00;5.00;;;;;13.26;74.78;100851.50;4866425;29;45691;-80
2023/12/27 10:56:36;;;;;;;;;4.00;4.00;;;;;13.46;75.85;100850.75;4867262;29;45762;-81
2023/12/27 10:59:06;;;;;;;;;11.00;9.00;;;;;13.53;74.87;100833.84;4866779;29;47190;-82
2023/12/27 11:01:38;;;;;;;;;9.00;8.00;;;;;13.54;73.71;100832.97;4867505;29;45567;-81
2023/12/27 11:04:16;;;;;;;;;11.00;9.67;;;;;13.57;73.98;100819.59;4882658;28;45428;-80
2023/12/27 11:06:42;;;;;;;;;9.67;9.00;;;;;13.48;72.33;100820.47;4868537;29;45613;-81
2023/12/27 11:09:09;;;;;;;;;7.00;5.33;;;;;13.50;72.98;100807.13;4883905;29;47539;-80
2023/12/27 11:11:39;;;;;;;;;7.00;7.00;;;;;13.57;72.79;100803.56;4882555;28;45398;-81
2023/12/27 11:14:08;;;;;;;;;6.33;6.33;;;;;13.52;72.78;100800.00;4867126;29;45374;-81
2023/12/27 11:16:35;;;;;;;;;6.33;5.33;;;;;13.52;73.85;100792.88;4867849;29;45683;-80
2023/12/27 11:19:12;;;;;;;;;5.67;5.67;;;;;13.68;73.98;100782.25;4869126;29;46310;-81
2023/12/27 11:21:37;;;;;;;;;8.00;7.67;;;;;13.59;71.58;100781.34;4868395;29;45442;-81
2023/12/27 11:24:05;;;;;;;;;8.67;8.67;;;;;13.69;72.72;100782.22;4868695;29;45572;-81
2023/12/27 11:26:37;;;;;;;;;4.33;3.00;;;;;13.69;71.94;100774.19;4873406;29;45298;-80
2023/12/27 11:29:10;;;;;;;;;7.00;6.33;;;;;13.64;71.24;100773.31;4867563;29;47033;-81
2023/12/27 11:31:38;;;;;;;;;5.00;5.00;;;;;13.62;71.61;100779.56;4873486;29;45775;-80
2023/12/27 11:34:10;;;;;;;;;4.00;3.33;;;;;13.74;71.48;100782.25;4870145;29;45299;-82
2023/12/27 11:36:36;;;;;;;;;5.00;5.00;;;;;13.67;72.17;100773.31;4872870;29;44810;-81
2023/12/27 11:42:24;;;;;;;;;5.33;5.33;;;;;13.66;70.88;100750.16;4870539;29;45429;-80
2023/12/27 11:44:54;;;;;;;;;4.00;4.00;;;;;13.63;70.36;100744.78;4885528;29;45501;-80
2023/12/27 11:47:20;;;;;;;;;8.67;5.00;;;;;13.73;70.57;100756.41;4885346;29;45328;-81
2023/12/27 11:50:13;;;;;;;;;7.33;5.00;;;;;13.90;71.33;100743.94;4875118;29;47156;-80
2023/12/27 11:52:46;;;;;;;;;7.67;5.67;;;;;13.94;71.60;100737.72;4848138;29;45413;-81
2023/12/27 11:55:24;;;;;;;;;5.00;4.00;;;;;13.99;69.94;100727.88;4849789;29;44847;-82
2023/12/27 11:57:57;;;;;;;;;7.33;7.00;;;;;14.09;71.00;100728.78;4852365;29;45751;-82
2023/12/27 12:00:45;;;;;;;;;5.00;5.00;;;;;14.17;69.00;100727.00;4868388;29;45546;-82
2023/12/27 12:03:24;;;;;;;;;4.00;4.00;;;;;14.15;69.03;100712.72;4853447;29;45351;-81